sensor_id;sensor_type;location;lat;lon;timestamp;P1;durP1;ratioP1;P2;durP2;ratioP2
19863;SDS011;10094;48.820;9.226;2023-04-06T00:01:55;14.50;;;9.85;;
19863;SDS011;10094;48.820;9.226;2023-04-06T00:08:37;15.13;;;10.70;;
19863;SDS011;10094;48.820;9.226;2023-04-06T00:15:20;19.10;;;10.50;;
19863;SDS011;10094;48.820;9.226;2023-04-06T00:22:02;15.10;;;10.57;;
19863;SDS011;10094;48.820;9.226;2023-04-06T00:28:45;18.00;;;12.23;;
19863;SDS011;10094;48.820;9.226;2023-04-06T00:35:27;19.63;;;12.57;;
19863;SDS011;10094;48.820;9.226;2023-04-06T00:42:11;21.58;;;12.18;;
19863;SDS011;10094;48.820;9.226;2023-04-06T00:48:57;15.32;;;10.98;;
19863;SDS011;10094;48.820;9.226;2023-04-06T00:55:39;14.23;;;10.43;;
19863;SDS011;10094;48.820;9.226;2023-04-06T01:02:23;13.85;;;9.95;;
19863;SDS011;10094;48.820;9.226;2023-04-06T01:09:08;12.77;;;9.15;;
19863;SDS011;10094;48.820;9.226;2023-04-06T01:15:51;12.65;;;8.77;;
19863;SDS011;10094;48.820;9.226;2023-04-06T01:22:41;12.80;;;9.38;;
19863;SDS011;10094;48.820;9.226;2023-04-06T01:29:25;14.63;;;9.60;;
19863;SDS011;10094;48.820;9.226;2023-04-06T01:36:16;11.85;;;8.70;;
19863;SDS011;10094;48.820;9.226;2023-04-06T01:43:03;13.65;;;9.50;;
19863;SDS011;10094;48.820;9.226;2023-04-06T01:49:58;14.00;;;10.25;;
19863;SDS011;10094;48.820;9.226;2023-04-06T01:56:41;11.75;;;9.27;;
19863;SDS011;10094;48.820;9.226;2023-04-06T02:03:38;13.95;;;9.25;;
19863;SDS011;10094;48.820;9.226;2023-04-06T02:10:24;10.98;;;8.65;;
19863;SDS011;10094;48.820;9.226;2023-04-06T02:17:07;13.38;;;9.93;;
19863;SDS011;10094;48.820;9.226;2023-04-06T02:23:49;15.30;;;10.35;;
19863;SDS011;10094;48.820;9.226;2023-04-06T02:30:32;15.27;;;10.73;;
19863;SDS011;10094;48.820;9.226;2023-04-06T02:37:15;16.50;;;10.60;;
19863;SDS011;10094;48.820;9.226;2023-04-06T02:43:57;16.70;;;11.15;;
19863;SDS011;10094;48.820;9.226;2023-04-06T02:50:50;21.23;;;12.38;;
19863;SDS011;10094;48.820;9.226;2023-04-06T02:57:33;18.90;;;10.77;;
19863;SDS011;10094;48.820;9.226;2023-04-06T03:04:16;20.50;;;12.32;;
19863;SDS011;10094;48.820;9.226;2023-04-06T03:10:58;16.63;;;11.68;;
19863;SDS011;10094;48.820;9.226;2023-04-06T03:17:49;21.27;;;13.05;;
19863;SDS011;10094;48.820;9.226;2023-04-06T03:24:52;18.17;;;11.32;;
19863;SDS011;10094;48.820;9.226;2023-04-06T03:31:34;15.73;;;11.73;;
19863;SDS011;10094;48.820;9.226;2023-04-06T03:38:22;19.83;;;13.15;;
19863;SDS011;10094;48.820;9.226;2023-04-06T03:45:05;19.65;;;13.57;;
19863;SDS011;10094;48.820;9.226;2023-04-06T03:51:49;20.85;;;13.00;;
19863;SDS011;10094;48.820;9.226;2023-04-06T03:58:32;23.30;;;13.88;;
19863;SDS011;10094;48.820;9.226;2023-04-06T04:05:14;24.80;;;13.75;;
19863;SDS011;10094;48.820;9.226;2023-04-06T04:11:57;19.83;;;13.90;;
19863;SDS011;10094;48.820;9.226;2023-04-06T04:18:39;20.63;;;13.95;;
19863;SDS011;10094;48.820;9.226;2023-04-06T04:25:22;16.85;;;13.02;;
19863;SDS011;10094;48.820;9.226;2023-04-06T04:32:05;24.70;;;14.38;;
19863;SDS011;10094;48.820;9.226;2023-04-06T04:38:48;22.55;;;15.00;;
19863;SDS011;10094;48.820;9.226;2023-04-06T04:45:31;21.02;;;13.10;;
19863;SDS011;10094;48.820;9.226;2023-04-06T04:52:19;24.33;;;13.75;;
19863;SDS011;10094;48.820;9.226;2023-04-06T04:59:11;19.63;;;12.90;;
19863;SDS011;10094;48.820;9.226;2023-04-06T05:05:57;15.98;;;12.07;;
19863;SDS011;10094;48.820;9.226;2023-04-06T05:12:43;20.98;;;13.43;;
19863;SDS011;10094;48.820;9.226;2023-04-06T05:19:26;20.65;;;12.38;;
19863;SDS011;10094;48.820;9.226;2023-04-06T05:26:08;17.40;;;11.48;;
19863;SDS011;10094;48.820;9.226;2023-04-06T05:32:51;25.38;;;12.00;;
19863;SDS011;10094;48.820;9.226;2023-04-06T05:39:36;19.48;;;11.45;;
19863;SDS011;10094;48.820;9.226;2023-04-06T05:46:18;19.95;;;11.35;;
19863;SDS011;10094;48.820;9.226;2023-04-06T05:53:02;19.05;;;11.40;;
19863;SDS011;10094;48.820;9.226;2023-04-06T05:59:52;17.92;;;11.90;;
19863;SDS011;10094;48.820;9.226;2023-04-06T06:06:36;21.60;;;10.73;;
19863;SDS011;10094;48.820;9.226;2023-04-06T06:13:35;11.85;;;9.90;;
19863;SDS011;10094;48.820;9.226;2023-04-06T06:20:17;11.45;;;9.93;;
19863;SDS011;10094;48.820;9.226;2023-04-06T06:27:01;14.65;;;10.23;;
19863;SDS011;10094;48.820;9.226;2023-04-06T06:33:47;11.43;;;9.90;;
19863;SDS011;10094;48.820;9.226;2023-04-06T06:40:34;12.88;;;10.57;;
19863;SDS011;10094;48.820;9.226;2023-04-06T06:47:17;16.38;;;10.27;;
19863;SDS011;10094;48.820;9.226;2023-04-06T06:54:00;13.27;;;9.20;;
19863;SDS011;10094;48.820;9.226;2023-04-06T07:00:42;14.68;;;9.63;;
19863;SDS011;10094;48.820;9.226;2023-04-06T07:07:26;10.95;;;9.18;;
19863;SDS011;10094;48.820;9.226;2023-04-06T07:14:08;11.70;;;10.02;;
19863;SDS011;10094;48.820;9.226;2023-04-06T07:20:51;10.85;;;9.00;;
19863;SDS011;10094;48.820;9.226;2023-04-06T07:27:34;9.45;;;8.27;;
19863;SDS011;10094;48.820;9.226;2023-04-06T07:34:17;9.88;;;8.88;;
19863;SDS011;10094;48.820;9.226;2023-04-06T07:41:00;12.40;;;9.13;;
19863;SDS011;10094;48.820;9.226;2023-04-06T07:47:46;10.23;;;8.32;;
19863;SDS011;10094;48.820;9.226;2023-04-06T07:54:29;14.48;;;9.98;;
19863;SDS011;10094;48.820;9.226;2023-04-06T08:01:11;10.63;;;8.98;;
19863;SDS011;10094;48.820;9.226;2023-04-06T08:07:54;14.02;;;9.60;;
19863;SDS011;10094;48.820;9.226;2023-04-06T08:14:36;13.77;;;9.75;;
19863;SDS011;10094;48.820;9.226;2023-04-06T08:21:19;11.70;;;9.52;;
19863;SDS011;10094;48.820;9.226;2023-04-06T08:28:02;11.80;;;9.30;;
19863;SDS011;10094;48.820;9.226;2023-04-06T08:34:45;11.32;;;9.32;;
19863;SDS011;10094;48.820;9.226;2023-04-06T08:41:28;12.90;;;10.43;;
19863;SDS011;10094;48.820;9.226;2023-04-06T08:48:11;12.25;;;9.10;;
19863;SDS011;10094;48.820;9.226;2023-04-06T08:54:54;11.55;;;9.57;;
19863;SDS011;10094;48.820;9.226;2023-04-06T09:01:38;11.00;;;9.02;;
19863;SDS011;10094;48.820;9.226;2023-04-06T09:08:23;11.27;;;9.38;;
19863;SDS011;10094;48.820;9.226;2023-04-06T09:15:05;11.52;;;9.45;;
19863;SDS011;10094;48.820;9.226;2023-04-06T09:22:02;11.10;;;10.00;;
19863;SDS011;10094;48.820;9.226;2023-04-06T09:28:50;14.98;;;10.10;;
19863;SDS011;10094;48.820;9.226;2023-04-06T09:35:35;11.18;;;10.15;;
19863;SDS011;10094;48.820;9.226;2023-04-06T09:42:24;10.18;;;8.88;;
19863;SDS011;10094;48.820;9.226;2023-04-06T09:49:08;9.73;;;8.65;;
19863;SDS011;10094;48.820;9.226;2023-04-06T09:55:51;10.05;;;6.80;;
19863;SDS011;10094;48.820;9.226;2023-04-06T10:09:31;9.95;;;7.55;;
19863;SDS011;10094;48.820;9.226;2023-04-06T10:16:17;8.77;;;7.88;;
19863;SDS011;10094;48.820;9.226;2023-04-06T10:30:03;6.72;;;6.13;;
19863;SDS011;10094;48.820;9.226;2023-04-06T10:36:47;9.02;;;8.13;;
19863;SDS011;10094;48.820;9.226;2023-04-06T10:43:32;10.60;;;8.00;;
19863;SDS011;10094;48.820;9.226;2023-04-06T10:50:19;8.30;;;7.47;;
19863;SDS011;10094;48.820;9.226;2023-04-06T10:57:03;7.78;;;7.07;;
19863;SDS011;10094;48.820;9.226;2023-04-06T11:03:46;8.60;;;6.78;;
19863;SDS011;10094;48.820;9.226;2023-04-06T11:10:32;8.80;;;7.20;;
19863;SDS011;10094;48.820;9.226;2023-04-06T11:17:15;8.95;;;7.10;;
19863;SDS011;10094;48.820;9.226;2023-04-06T11:31:03;8.73;;;5.97;;
19863;SDS011;10094;48.820;9.226;2023-04-06T11:37:45;7.57;;;6.47;;
19863;SDS011;10094;48.820;9.226;2023-04-06T11:44:35;8.00;;;6.38;;
19863;SDS011;10094;48.820;9.226;2023-04-06T11:51:22;8.30;;;6.05;;
19863;SDS011;10094;48.820;9.226;2023-04-06T11:58:08;8.95;;;6.18;;
19863;SDS011;10094;48.820;9.226;2023-04-06T12:04:51;7.50;;;5.93;;
19863;SDS011;10094;48.820;9.226;2023-04-06T12:11:33;7.10;;;6.00;;
19863;SDS011;10094;48.820;9.226;2023-04-06T12:18:16;6.40;;;5.72;;
19863;SDS011;10094;48.820;9.226;2023-04-06T12:24:58;7.18;;;6.35;;
19863;SDS011;10094;48.820;9.226;2023-04-06T12:31:41;7.93;;;6.35;;
19863;SDS011;10094;48.820;9.226;2023-04-06T12:38:26;8.90;;;6.00;;
19863;SDS011;10094;48.820;9.226;2023-04-06T12:45:08;6.82;;;5.93;;
19863;SDS011;10094;48.820;9.226;2023-04-06T12:51:51;7.47;;;6.03;;
19863;SDS011;10094;48.820;9.226;2023-04-06T12:58:33;7.50;;;6.60;;
19863;SDS011;10094;48.820;9.226;2023-04-06T13:05:17;9.45;;;6.80;;
19863;SDS011;10094;48.820;9.226;2023-04-06T13:12:00;7.05;;;6.07;;
19863;SDS011;10094;48.820;9.226;2023-04-06T13:18:43;7.50;;;5.95;;
19863;SDS011;10094;48.820;9.226;2023-04-06T13:25:26;7.82;;;6.32;;
19863;SDS011;10094;48.820;9.226;2023-04-06T13:32:09;8.18;;;6.45;;
19863;SDS011;10094;48.820;9.226;2023-04-06T13:38:52;7.90;;;6.35;;
19863;SDS011;10094;48.820;9.226;2023-04-06T13:45:36;9.55;;;6.60;;
19863;SDS011;10094;48.820;9.226;2023-04-06T13:52:19;6.90;;;5.82;;
19863;SDS011;10094;48.820;9.226;2023-04-06T13:59:02;7.25;;;6.00;;
19863;SDS011;10094;48.820;9.226;2023-04-06T14:05:45;11.27;;;6.32;;
19863;SDS011;10094;48.820;9.226;2023-04-06T14:12:28;7.45;;;6.00;;
19863;SDS011;10094;48.820;9.226;2023-04-06T14:19:11;8.63;;;5.75;;
19863;SDS011;10094;48.820;9.226;2023-04-06T14:26:01;7.38;;;6.28;;
19863;SDS011;10094;48.820;9.226;2023-04-06T14:32:45;8.98;;;6.68;;
19863;SDS011;10094;48.820;9.226;2023-04-06T14:39:27;7.38;;;5.78;;
19863;SDS011;10094;48.820;9.226;2023-04-06T14:46:10;6.35;;;5.60;;
19863;SDS011;10094;48.820;9.226;2023-04-06T14:52:52;10.30;;;6.07;;
19863;SDS011;10094;48.820;9.226;2023-04-06T14:59:35;7.40;;;6.18;;
19863;SDS011;10094;48.820;9.226;2023-04-06T15:06:23;8.57;;;5.65;;
19863;SDS011;10094;48.820;9.226;2023-04-06T15:13:06;6.47;;;5.20;;
19863;SDS011;10094;48.820;9.226;2023-04-06T15:19:48;8.82;;;5.70;;
19863;SDS011;10094;48.820;9.226;2023-04-06T15:26:31;7.20;;;4.95;;
19863;SDS011;10094;48.820;9.226;2023-04-06T15:33:13;8.65;;;5.32;;
19863;SDS011;10094;48.820;9.226;2023-04-06T15:39:55;8.10;;;5.60;;
19863;SDS011;10094;48.820;9.226;2023-04-06T15:46:40;8.85;;;6.25;;
19863;SDS011;10094;48.820;9.226;2023-04-06T15:53:23;6.88;;;5.63;;
19863;SDS011;10094;48.820;9.226;2023-04-06T16:00:05;9.45;;;6.47;;
19863;SDS011;10094;48.820;9.226;2023-04-06T16:06:50;9.82;;;6.68;;
19863;SDS011;10094;48.820;9.226;2023-04-06T16:13:33;7.85;;;6.65;;
19863;SDS011;10094;48.820;9.226;2023-04-06T16:20:16;8.82;;;6.22;;
19863;SDS011;10094;48.820;9.226;2023-04-06T16:26:58;8.90;;;5.85;;
19863;SDS011;10094;48.820;9.226;2023-04-06T16:33:41;8.07;;;5.90;;
19863;SDS011;10094;48.820;9.226;2023-04-06T16:40:23;8.13;;;5.90;;
19863;SDS011;10094;48.820;9.226;2023-04-06T16:47:06;8.50;;;7.18;;
19863;SDS011;10094;48.820;9.226;2023-04-06T16:53:49;8.82;;;7.53;;
19863;SDS011;10094;48.820;9.226;2023-04-06T17:00:31;10.05;;;6.43;;
19863;SDS011;10094;48.820;9.226;2023-04-06T17:07:14;10.82;;;7.78;;
19863;SDS011;10094;48.820;9.226;2023-04-06T17:13:56;11.40;;;8.60;;
19863;SDS011;10094;48.820;9.226;2023-04-06T17:20:39;10.55;;;8.15;;
19863;SDS011;10094;48.820;9.226;2023-04-06T17:27:22;8.80;;;6.47;;
19863;SDS011;10094;48.820;9.226;2023-04-06T17:34:07;9.73;;;5.82;;
19863;SDS011;10094;48.820;9.226;2023-04-06T17:40:51;9.65;;;5.32;;
19863;SDS011;10094;48.820;9.226;2023-04-06T17:47:33;6.85;;;5.28;;
19863;SDS011;10094;48.820;9.226;2023-04-06T17:54:16;8.55;;;5.70;;
19863;SDS011;10094;48.820;9.226;2023-04-06T18:00:58;7.32;;;5.15;;
19863;SDS011;10094;48.820;9.226;2023-04-06T18:07:49;7.25;;;5.13;;
19863;SDS011;10094;48.820;9.226;2023-04-06T18:14:33;6.82;;;4.90;;
19863;SDS011;10094;48.820;9.226;2023-04-06T18:21:16;6.25;;;4.78;;
19863;SDS011;10094;48.820;9.226;2023-04-06T18:27:58;6.70;;;5.20;;
19863;SDS011;10094;48.820;9.226;2023-04-06T18:34:41;6.03;;;4.40;;
19863;SDS011;10094;48.820;9.226;2023-04-06T18:41:24;7.43;;;5.30;;
19863;SDS011;10094;48.820;9.226;2023-04-06T18:48:06;8.75;;;4.75;;
19863;SDS011;10094;48.820;9.226;2023-04-06T18:54:49;7.88;;;5.22;;
19863;SDS011;10094;48.820;9.226;2023-04-06T19:01:31;6.22;;;5.00;;
19863;SDS011;10094;48.820;9.226;2023-04-06T19:08:14;6.63;;;4.60;;
19863;SDS011;10094;48.820;9.226;2023-04-06T19:14:57;6.07;;;4.50;;
19863;SDS011;10094;48.820;9.226;2023-04-06T19:21:39;8.48;;;5.05;;
19863;SDS011;10094;48.820;9.226;2023-04-06T19:28:25;7.53;;;4.60;;
19863;SDS011;10094;48.820;9.226;2023-04-06T19:35:07;8.05;;;4.45;;
19863;SDS011;10094;48.820;9.226;2023-04-06T19:41:50;4.55;;;4.00;;
19863;SDS011;10094;48.820;9.226;2023-04-06T19:48:32;6.53;;;3.50;;
19863;SDS011;10094;48.820;9.226;2023-04-06T19:55:15;3.58;;;2.88;;
19863;SDS011;10094;48.820;9.226;2023-04-06T20:01:58;7.43;;;4.28;;
19863;SDS011;10094;48.820;9.226;2023-04-06T20:08:40;8.77;;;3.80;;
19863;SDS011;10094;48.820;9.226;2023-04-06T20:15:23;4.20;;;3.42;;
19863;SDS011;10094;48.820;9.226;2023-04-06T20:22:06;2.42;;;2.10;;
19863;SDS011;10094;48.820;9.226;2023-04-06T20:28:48;3.88;;;2.40;;
19863;SDS011;10094;48.820;9.226;2023-04-06T20:35:30;3.60;;;2.70;;
19863;SDS011;10094;48.820;9.226;2023-04-06T20:42:15;3.65;;;2.75;;
19863;SDS011;10094;48.820;9.226;2023-04-06T20:48:58;6.88;;;3.30;;
19863;SDS011;10094;48.820;9.226;2023-04-06T20:55:41;4.38;;;3.25;;
19863;SDS011;10094;48.820;9.226;2023-04-06T21:02:23;4.43;;;3.20;;
19863;SDS011;10094;48.820;9.226;2023-04-06T21:09:07;5.35;;;3.58;;
19863;SDS011;10094;48.820;9.226;2023-04-06T21:15:49;7.22;;;4.03;;
19863;SDS011;10094;48.820;9.226;2023-04-06T21:22:32;4.82;;;3.53;;
19863;SDS011;10094;48.820;9.226;2023-04-06T21:29:15;5.60;;;4.00;;
19863;SDS011;10094;48.820;9.226;2023-04-06T21:35:57;6.13;;;4.20;;
19863;SDS011;10094;48.820;9.226;2023-04-06T21:42:39;5.32;;;4.78;;
19863;SDS011;10094;48.820;9.226;2023-04-06T21:49:22;9.07;;;5.10;;
19863;SDS011;10094;48.820;9.226;2023-04-06T21:56:04;6.28;;;5.43;;
19863;SDS011;10094;48.820;9.226;2023-04-06T22:02:47;6.28;;;4.88;;
19863;SDS011;10094;48.820;9.226;2023-04-06T22:09:30;6.10;;;5.43;;
19863;SDS011;10094;48.820;9.226;2023-04-06T22:16:13;8.30;;;6.68;;
19863;SDS011;10094;48.820;9.226;2023-04-06T22:22:56;7.43;;;6.28;;
19863;SDS011;10094;48.820;9.226;2023-04-06T22:29:38;8.10;;;7.15;;
19863;SDS011;10094;48.820;9.226;2023-04-06T22:36:20;8.73;;;7.57;;
19863;SDS011;10094;48.820;9.226;2023-04-06T22:43:03;10.65;;;8.38;;
19863;SDS011;10094;48.820;9.226;2023-04-06T22:49:45;11.02;;;8.38;;
19863;SDS011;10094;48.820;9.226;2023-04-06T22:56:27;10.15;;;8.23;;
19863;SDS011;10094;48.820;9.226;2023-04-06T23:03:10;8.75;;;7.60;;
19863;SDS011;10094;48.820;9.226;2023-04-06T23:09:52;10.32;;;8.43;;
19863;SDS011;10094;48.820;9.226;2023-04-06T23:16:34;9.60;;;8.57;;
19863;SDS011;10094;48.820;9.226;2023-04-06T23:23:17;9.80;;;8.45;;
19863;SDS011;10094;48.820;9.226;2023-04-06T23:30:00;14.10;;;8.70;;
19863;SDS011;10094;48.820;9.226;2023-04-06T23:36:42;13.50;;;10.45;;
19863;SDS011;10094;48.820;9.226;2023-04-06T23:43:24;11.48;;;8.48;;
19863;SDS011;10094;48.820;9.226;2023-04-06T23:50:07;10.57;;;8.05;;
19863;SDS011;10094;48.820;9.226;2023-04-06T23:56:50;12.75;;;8.43;;
